TGZ2775 UGTB-ULLI
Flight info
| Callsign | TGZ2775 |
|---|---|
| Flight time | N/A |
| Altitude | 38000 |
| Route | KUFAN MKL ZNL SL N50 OBABI N50 RINGU N50 OLOPI N50 NUDKO T561 ODATI T875 GENPA |
| Aircraft | B738/M-SDRWY/S |
Departure
| Time | 2026-04-23 16:46 |
|---|---|
| Airport | Tbilisi International Airport (UGTB) |
Arrival
| Time | N/A |
|---|---|
| Airport | Pulkovo Airport (ULLI) |
| Time | Latitude | Longitude | Altitude | Speed | Heading |
|---|---|---|---|---|---|
| 2026-04-23 16:31 | 41.66825 | 44.96445 | 1526 ft | 0 kts | 43° |
| 2026-04-23 16:38 | 41.66817 | 44.96436 | 1518 ft | 2 kts | 43° |
| 2026-04-23 16:38 | 41.66806 | 44.96421 | 1518 ft | 2 kts | 43° |
| 2026-04-23 16:39 | 41.66794 | 44.96406 | 1519 ft | 2 kts | 47° |
| 2026-04-23 16:39 | 41.66785 | 44.96388 | 1519 ft | 2 kts | 96° |
| 2026-04-23 16:39 | 41.66788 | 44.96375 | 1521 ft | 1 kts | 135° |
| 2026-04-23 16:39 | 41.66789 | 44.96373 | 1521 ft | 0 kts | 136° |
| 2026-04-23 16:42 | 41.66768 | 44.96399 | 1523 ft | 5 kts | 144° |
| 2026-04-23 16:42 | 41.66730 | 44.96421 | 1523 ft | 7 kts | 159° |
| 2026-04-23 16:42 | 41.66675 | 44.96427 | 1524 ft | 9 kts | 189° |
| 2026-04-23 16:42 | 41.66607 | 44.96412 | 1520 ft | 11 kts | 191° |
| 2026-04-23 16:43 | 41.66530 | 44.96387 | 1526 ft | 12 kts | 194° |
| 2026-04-23 16:43 | 41.66443 | 44.96358 | 1520 ft | 14 kts | 194° |
| 2026-04-23 16:43 | 41.66343 | 44.96324 | 1522 ft | 16 kts | 194° |
| 2026-04-23 16:43 | 41.66230 | 44.96301 | 1522 ft | 17 kts | 176° |
| 2026-04-23 16:44 | 41.66125 | 44.96361 | 1523 ft | 16 kts | 139° |
| 2026-04-23 16:44 | 41.66043 | 44.96465 | 1525 ft | 16 kts | 136° |
| 2026-04-23 16:44 | 41.65965 | 44.96566 | 1522 ft | 15 kts | 136° |
| 2026-04-23 16:44 | 41.65872 | 44.96585 | 1523 ft | 15 kts | 211° |
| 2026-04-23 16:45 | 41.65846 | 44.96467 | 1524 ft | 14 kts | 288° |
| 2026-04-23 16:45 | 41.65908 | 44.96374 | 1524 ft | 12 kts | 316° |
| 2026-04-23 16:45 | 41.65956 | 44.96311 | 1520 ft | 21 kts | 316° |
| 2026-04-23 16:45 | 41.66241 | 44.95951 | 1526 ft | 90 kts | 317° |
| 2026-04-23 16:46 | 41.66846 | 44.95196 | 1525 ft | 148 kts | 317° |
| 2026-04-23 16:46 | 41.67718 | 44.94110 | 1643 ft | 187 kts | 318° |
| 2026-04-23 16:46 | 41.68644 | 44.92948 | 2505 ft | 179 kts | 317° |
| 2026-04-23 16:46 | 41.69568 | 44.91825 | 3276 ft | 181 kts | 319° |
| 2026-04-23 16:47 | 41.70509 | 44.90655 | 3881 ft | 187 kts | 316° |
| 2026-04-23 16:47 | 41.71457 | 44.89449 | 4475 ft | 189 kts | 316° |
| 2026-04-23 16:47 | 41.72439 | 44.88206 | 4944 ft | 198 kts | 315° |
| 2026-04-23 16:47 | 41.73458 | 44.86921 | 5392 ft | 204 kts | 315° |
| 2026-04-23 16:48 | 41.74502 | 44.85607 | 5839 ft | 209 kts | 314° |
| 2026-04-23 16:48 | 41.75588 | 44.84239 | 6182 ft | 223 kts | 313° |
| 2026-04-23 16:48 | 41.76780 | 44.82732 | 6356 ft | 245 kts | 314° |
| 2026-04-23 16:48 | 41.78062 | 44.81255 | 6930 ft | 249 kts | 327° |
| 2026-04-23 16:49 | 41.79161 | 44.80669 | 7348 ft | 255 kts | 346° |
| 2026-04-23 16:49 | 41.81501 | 44.81025 | 8167 ft | 265 kts | 25° |
| 2026-04-23 16:49 | 41.82925 | 44.82589 | 8786 ft | 269 kts | 56° |
| 2026-04-23 16:49 | 41.83642 | 44.84884 | 9452 ft | 267 kts | 81° |
| 2026-04-23 16:50 | 41.83931 | 44.87335 | 10072 ft | 266 kts | 85° |
| 2026-04-23 16:50 | 41.84146 | 44.89805 | 10606 ft | 268 kts | 85° |
| 2026-04-23 16:50 | 41.84366 | 44.92297 | 11194 ft | 270 kts | 85° |
| 2026-04-23 16:50 | 41.84586 | 44.94808 | 11755 ft | 272 kts | 85° |
| 2026-04-23 16:51 | 41.84809 | 44.97352 | 12263 ft | 279 kts | 85° |
| 2026-04-23 16:51 | 41.85037 | 44.99979 | 12730 ft | 288 kts | 85° |
| 2026-04-23 16:51 | 41.85272 | 45.02689 | 13193 ft | 297 kts | 85° |
| 2026-04-23 16:51 | 41.85514 | 45.05484 | 13667 ft | 305 kts | 85° |
| 2026-04-23 16:52 | 41.85759 | 45.08320 | 14075 ft | 314 kts | 84° |
| 2026-04-23 16:52 | 41.86013 | 45.11270 | 14503 ft | 323 kts | 84° |
| 2026-04-23 16:52 | 41.86274 | 45.14304 | 14952 ft | 332 kts | 85° |
| 2026-04-23 16:52 | 41.86542 | 45.17427 | 15399 ft | 342 kts | 84° |
| 2026-04-23 16:53 | 41.86816 | 45.20638 | 15847 ft | 351 kts | 84° |
| 2026-04-23 16:53 | 41.87097 | 45.23942 | 16302 ft | 360 kts | 84° |
| 2026-04-23 16:53 | 41.87384 | 45.27328 | 16776 ft | 370 kts | 84° |
| 2026-04-23 16:53 | 41.87677 | 45.30793 | 17205 ft | 378 kts | 84° |
| 2026-04-23 16:54 | 41.87975 | 45.34327 | 17672 ft | 385 kts | 84° |
| 2026-04-23 16:54 | 41.88278 | 45.37933 | 18138 ft | 392 kts | 84° |
| 2026-04-23 16:54 | 41.88584 | 45.41600 | 18556 ft | 399 kts | 84° |
| 2026-04-23 16:54 | 41.88894 | 45.45330 | 18960 ft | 405 kts | 84° |
| 2026-04-23 16:55 | 41.89208 | 45.49110 | 19374 ft | 410 kts | 84° |
| 2026-04-23 16:55 | 41.89525 | 45.52942 | 19792 ft | 416 kts | 84° |
| 2026-04-23 16:55 | 41.89844 | 45.56817 | 20222 ft | 420 kts | 84° |
| 2026-04-23 16:55 | 41.90165 | 45.60741 | 20654 ft | 425 kts | 84° |
| 2026-04-23 16:56 | 41.90489 | 45.64710 | 21092 ft | 429 kts | 84° |
| 2026-04-23 16:56 | 41.90813 | 45.68708 | 21534 ft | 433 kts | 83° |
| 2026-04-23 16:56 | 41.91139 | 45.72740 | 21994 ft | 436 kts | 83° |
| 2026-04-23 16:56 | 41.91467 | 45.76810 | 22449 ft | 439 kts | 83° |
| 2026-04-23 16:57 | 41.91790 | 45.80848 | 22908 ft | 442 kts | 83° |
| 2026-04-23 16:57 | 41.92122 | 45.85015 | 23380 ft | 444 kts | 83° |
| 2026-04-23 16:57 | 41.92446 | 45.89097 | 23785 ft | 446 kts | 83° |
| 2026-04-23 16:57 | 41.92774 | 45.93257 | 24190 ft | 448 kts | 83° |
| 2026-04-23 16:58 | 41.93102 | 45.97431 | 24591 ft | 450 kts | 83° |
| 2026-04-23 16:58 | 41.93430 | 46.01624 | 25005 ft | 451 kts | 83° |
| 2026-04-23 16:58 | 41.93756 | 46.05810 | 25427 ft | 452 kts | 83° |
| 2026-04-23 16:58 | 41.94082 | 46.10010 | 25858 ft | 453 kts | 83° |
| 2026-04-23 16:59 | 41.94407 | 46.14228 | 26285 ft | 453 kts | 83° |
| 2026-04-23 16:59 | 41.94731 | 46.18440 | 26728 ft | 453 kts | 83° |
| 2026-04-23 16:59 | 41.95053 | 46.22655 | 27170 ft | 454 kts | 83° |
| 2026-04-23 16:59 | 41.95513 | 46.26782 | 27595 ft | 452 kts | 72° |
| 2026-04-23 17:00 | 41.96767 | 46.30668 | 28045 ft | 446 kts | 54° |
| 2026-04-23 17:00 | 41.98640 | 46.33961 | 28541 ft | 441 kts | 47° |
| 2026-04-23 17:00 | 42.00565 | 46.37085 | 28987 ft | 439 kts | 47° |
| 2026-04-23 17:00 | 42.02515 | 46.40228 | 29418 ft | 436 kts | 47° |
| 2026-04-23 17:01 | 42.04453 | 46.43343 | 29951 ft | 432 kts | 46° |
| 2026-04-23 17:01 | 42.06383 | 46.46447 | 30348 ft | 431 kts | 47° |
| 2026-04-23 17:01 | 42.08302 | 46.49538 | 30772 ft | 429 kts | 47° |
| 2026-04-23 17:01 | 42.10208 | 46.52613 | 31170 ft | 426 kts | 47° |
| 2026-04-23 17:02 | 42.11458 | 46.54635 | 31464 ft | 424 kts | 47° |
| 2026-04-23 17:02 | 42.13976 | 46.58711 | 32009 ft | 421 kts | 47° |
| 2026-04-23 17:02 | 42.15837 | 46.61729 | 32450 ft | 417 kts | 47° |
| 2026-04-23 17:02 | 42.17683 | 46.64726 | 32895 ft | 413 kts | 47° |
| 2026-04-23 17:03 | 42.19514 | 46.67703 | 33242 ft | 413 kts | 47° |
| 2026-04-23 17:03 | 42.21357 | 46.70698 | 33394 ft | 417 kts | 47° |
| 2026-04-23 17:03 | 42.23213 | 46.73719 | 33595 ft | 419 kts | 47° |
| 2026-04-23 17:03 | 42.25056 | 46.76721 | 33791 ft | 421 kts | 47° |
| 2026-04-23 17:04 | 42.26955 | 46.79818 | 33954 ft | 424 kts | 47° |
| 2026-04-23 17:04 | 42.28816 | 46.82856 | 34124 ft | 425 kts | 47° |
| 2026-04-23 17:04 | 42.30704 | 46.85944 | 34276 ft | 427 kts | 47° |
| 2026-04-23 17:04 | 42.32600 | 46.89048 | 34451 ft | 428 kts | 47° |
| 2026-04-23 17:05 | 42.34499 | 46.92160 | 34628 ft | 430 kts | 47° |
| 2026-04-23 17:05 | 42.36409 | 46.95292 | 34786 ft | 431 kts | 47° |
| 2026-04-23 17:05 | 42.38317 | 46.98425 | 34963 ft | 433 kts | 47° |
| 2026-04-23 17:05 | 42.40233 | 47.01575 | 35138 ft | 434 kts | 47° |
| 2026-04-23 17:06 | 42.42157 | 47.04742 | 35315 ft | 435 kts | 47° |
| 2026-04-23 17:06 | 42.44077 | 47.07904 | 35501 ft | 436 kts | 47° |
| 2026-04-23 17:06 | 42.46003 | 47.11081 | 35653 ft | 436 kts | 47° |
| 2026-04-23 17:06 | 42.47925 | 47.14254 | 35859 ft | 435 kts | 47° |
| 2026-04-23 17:07 | 42.49850 | 47.17435 | 36045 ft | 436 kts | 47° |
| 2026-04-23 17:07 | 42.51772 | 47.20615 | 36231 ft | 436 kts | 47° |
| 2026-04-23 17:07 | 42.53696 | 47.23802 | 36410 ft | 436 kts | 47° |
| 2026-04-23 17:07 | 42.55616 | 47.26986 | 36591 ft | 436 kts | 47° |
| 2026-04-23 17:08 | 42.57513 | 47.30135 | 36784 ft | 436 kts | 47° |
| 2026-04-23 17:08 | 42.59429 | 47.33318 | 36964 ft | 435 kts | 47° |
| 2026-04-23 17:08 | 42.61338 | 47.36494 | 37166 ft | 434 kts | 47° |
| 2026-04-23 17:08 | 42.63246 | 47.39671 | 37274 ft | 436 kts | 47° |
| 2026-04-23 17:09 | 42.67122 | 47.46131 | 37243 ft | 445 kts | 47° |
| 2026-04-23 17:09 | 42.71069 | 47.52730 | 37245 ft | 454 kts | 48° |
| 2026-04-23 17:10 | 42.75070 | 47.59432 | 37384 ft | 458 kts | 48° |
| 2026-04-23 17:10 | 42.77238 | 47.62613 | 37358 ft | 457 kts | 33° |
| 2026-04-23 17:10 | 42.79963 | 47.64767 | 37200 ft | 452 kts | 15° |
| 2026-04-23 17:11 | 42.82979 | 47.65829 | 37243 ft | 445 kts | 0° |
| 2026-04-23 17:11 | 42.85995 | 47.65791 | 37260 ft | 437 kts | 347° |
| 2026-04-23 17:11 | 42.92054 | 47.64719 | 37358 ft | 442 kts | 346° |
| 2026-04-23 17:12 | 42.98191 | 47.63540 | 37433 ft | 448 kts | 346° |
| 2026-04-23 17:12 | 43.04426 | 47.62353 | 37503 ft | 454 kts | 346° |
| 2026-04-23 17:13 | 43.07559 | 47.61765 | 37618 ft | 455 kts | 347° |
| 2026-04-23 17:13 | 43.10693 | 47.61180 | 37779 ft | 454 kts | 347° |
| 2026-04-23 17:13 | 43.16974 | 47.60011 | 37866 ft | 457 kts | 347° |
| 2026-04-23 17:14 | 43.23272 | 47.58837 | 37871 ft | 455 kts | 346° |
| 2026-04-23 17:14 | 43.29555 | 47.57662 | 37924 ft | 458 kts | 347° |
| 2026-04-23 17:15 | 43.35827 | 47.56483 | 38099 ft | 460 kts | 347° |
| 2026-04-23 17:15 | 43.39002 | 47.55887 | 38246 ft | 460 kts | 347° |
| 2026-04-23 17:15 | 43.42168 | 47.55292 | 38364 ft | 460 kts | 347° |
| 2026-04-23 17:16 | 43.48495 | 47.54100 | 38561 ft | 462 kts | 347° |
| 2026-04-23 17:16 | 43.53833 | 47.53093 | 38707 ft | 461 kts | 347° |
| 2026-04-23 17:17 | 43.57005 | 47.52495 | 38808 ft | 460 kts | 347° |
| 2026-04-23 17:17 | 43.61208 | 47.51700 | 38858 ft | 461 kts | 347° |
| 2026-04-23 17:17 | 43.67583 | 47.50489 | 38871 ft | 463 kts | 347° |
| 2026-04-23 17:18 | 43.76157 | 47.48858 | 38870 ft | 466 kts | 347° |
| 2026-04-23 17:19 | 43.82589 | 47.47633 | 38867 ft | 467 kts | 347° |
| 2026-04-23 17:19 | 43.88982 | 47.46413 | 38858 ft | 467 kts | 347° |
| 2026-04-23 17:20 | 43.95417 | 47.45182 | 38861 ft | 466 kts | 347° |
| 2026-04-23 17:21 | 44.08258 | 47.42717 | 38865 ft | 466 kts | 347° |
| 2026-04-23 17:21 | 44.17926 | 47.40851 | 38871 ft | 469 kts | 347° |
| 2026-04-23 17:22 | 44.27645 | 47.38972 | 38870 ft | 471 kts | 347° |
| 2026-04-23 17:23 | 44.37393 | 47.37081 | 38872 ft | 472 kts | 347° |
| 2026-04-23 17:24 | 44.47168 | 47.35178 | 38867 ft | 473 kts | 347° |
| 2026-04-23 17:24 | 44.56917 | 47.33274 | 38870 ft | 473 kts | 346° |
| 2026-04-23 17:25 | 44.66700 | 47.31356 | 38868 ft | 473 kts | 346° |
| 2026-04-23 17:26 | 44.79754 | 47.28787 | 38871 ft | 473 kts | 346° |
| 2026-04-23 17:27 | 44.89551 | 47.26852 | 38873 ft | 473 kts | 346° |
| 2026-04-23 17:27 | 44.96036 | 47.25566 | 38871 ft | 474 kts | 346° |
| 2026-04-23 17:28 | 45.02573 | 47.24268 | 38872 ft | 474 kts | 346° |
| 2026-04-23 17:28 | 45.09105 | 47.22968 | 38874 ft | 475 kts | 346° |
| 2026-04-23 17:29 | 45.15664 | 47.21659 | 38874 ft | 475 kts | 346° |
| 2026-04-23 17:30 | 45.25494 | 47.19691 | 38870 ft | 476 kts | 346° |
| 2026-04-23 17:30 | 45.35364 | 47.17709 | 38869 ft | 477 kts | 346° |
| 2026-04-23 17:31 | 45.41905 | 47.16392 | 38868 ft | 478 kts | 346° |
| 2026-04-23 17:31 | 45.48498 | 47.15061 | 38868 ft | 479 kts | 346° |
| 2026-04-23 17:32 | 45.55102 | 47.13725 | 38867 ft | 479 kts | 346° |
| 2026-04-23 17:32 | 45.61716 | 47.12382 | 38873 ft | 481 kts | 345° |
| 2026-04-23 17:33 | 45.68362 | 47.11030 | 38872 ft | 482 kts | 345° |
| 2026-04-23 17:33 | 45.75020 | 47.09674 | 38867 ft | 483 kts | 345° |
| 2026-04-23 17:34 | 45.81695 | 47.08310 | 38866 ft | 484 kts | 345° |
| 2026-04-23 17:35 | 45.91682 | 47.06143 | 38848 ft | 480 kts | 340° |
| 2026-04-23 17:35 | 45.97820 | 47.02823 | 38862 ft | 468 kts | 328° |
| 2026-04-23 17:35 | 46.00756 | 47.00791 | 38851 ft | 468 kts | 327° |
| 2026-04-23 17:36 | 46.06606 | 46.96689 | 38851 ft | 468 kts | 327° |
| 2026-04-23 17:36 | 46.12449 | 46.92640 | 38849 ft | 468 kts | 328° |
| 2026-04-23 17:37 | 46.18335 | 46.88603 | 38849 ft | 468 kts | 328° |
| 2026-04-23 17:38 | 46.27208 | 46.82528 | 38842 ft | 468 kts | 328° |
| 2026-04-23 17:38 | 46.33098 | 46.78482 | 38846 ft | 468 kts | 328° |
| 2026-04-23 17:39 | 46.38980 | 46.74430 | 38842 ft | 468 kts | 328° |
| 2026-04-23 17:39 | 46.44871 | 46.70362 | 38841 ft | 468 kts | 328° |
| 2026-04-23 17:40 | 46.50719 | 46.66313 | 38839 ft | 469 kts | 328° |
| 2026-04-23 17:40 | 46.56609 | 46.62225 | 38834 ft | 469 kts | 328° |
| 2026-04-23 17:41 | 46.62494 | 46.58131 | 38832 ft | 469 kts | 328° |
| 2026-04-23 17:41 | 46.71332 | 46.51964 | 38829 ft | 470 kts | 328° |
| 2026-04-23 17:42 | 46.80179 | 46.45768 | 38827 ft | 470 kts | 328° |
| 2026-04-23 17:43 | 46.86085 | 46.41620 | 38829 ft | 471 kts | 328° |
| 2026-04-23 17:43 | 46.91992 | 46.37460 | 38822 ft | 472 kts | 328° |
| 2026-04-23 17:44 | 46.97867 | 46.33313 | 38816 ft | 472 kts | 328° |
| 2026-04-23 17:44 | 47.06750 | 46.27023 | 38818 ft | 473 kts | 328° |
| 2026-04-23 17:45 | 47.15652 | 46.20696 | 38814 ft | 474 kts | 328° |
| 2026-04-23 17:46 | 47.24549 | 46.14349 | 38809 ft | 474 kts | 328° |
| 2026-04-23 17:46 | 47.30493 | 46.10095 | 38805 ft | 474 kts | 328° |
| 2026-04-23 17:47 | 47.36437 | 46.05831 | 38803 ft | 474 kts | 328° |
| 2026-04-23 17:48 | 47.45301 | 45.99452 | 38801 ft | 474 kts | 328° |
| 2026-04-23 17:48 | 47.51235 | 45.95168 | 38795 ft | 474 kts | 328° |
| 2026-04-23 17:49 | 47.57159 | 45.90880 | 38789 ft | 474 kts | 328° |
| 2026-04-23 17:49 | 47.63083 | 45.86582 | 38788 ft | 473 kts | 328° |
| 2026-04-23 17:50 | 47.68997 | 45.82279 | 38783 ft | 473 kts | 328° |
| 2026-04-23 17:50 | 47.77858 | 45.75812 | 38784 ft | 473 kts | 328° |
| 2026-04-23 17:51 | 47.83756 | 45.71494 | 38776 ft | 472 kts | 328° |
| 2026-04-23 17:52 | 47.92605 | 45.64995 | 38773 ft | 472 kts | 328° |
| 2026-04-23 17:52 | 48.01400 | 45.58511 | 38774 ft | 471 kts | 328° |
| 2026-04-23 17:53 | 48.10204 | 45.51994 | 38770 ft | 471 kts | 328° |
| 2026-04-23 17:54 | 48.16075 | 45.47635 | 38767 ft | 471 kts | 328° |
| 2026-04-23 17:54 | 48.24876 | 45.41078 | 38760 ft | 471 kts | 328° |
| 2026-04-23 17:55 | 48.33634 | 45.34529 | 38759 ft | 471 kts | 328° |
| 2026-04-23 17:56 | 48.39491 | 45.30107 | 38750 ft | 470 kts | 326° |
| 2026-04-23 17:56 | 48.47317 | 45.21514 | 38751 ft | 463 kts | 316° |
| 2026-04-23 17:57 | 48.52369 | 45.15455 | 38746 ft | 464 kts | 317° |
| 2026-04-23 17:58 | 48.60007 | 45.06434 | 38738 ft | 465 kts | 317° |
| 2026-04-23 17:58 | 48.65125 | 45.00414 | 38736 ft | 466 kts | 317° |
| 2026-04-23 17:59 | 48.70247 | 44.94372 | 38736 ft | 466 kts | 317° |
| 2026-04-23 17:59 | 48.75333 | 44.88351 | 38725 ft | 467 kts | 317° |
| 2026-04-23 18:00 | 48.80449 | 44.82280 | 38726 ft | 467 kts | 317° |
| 2026-04-23 18:00 | 48.85557 | 44.76169 | 38720 ft | 467 kts | 317° |
| 2026-04-23 18:01 | 48.90577 | 44.69910 | 38719 ft | 467 kts | 316° |
| 2026-04-23 18:01 | 48.95574 | 44.63608 | 38721 ft | 467 kts | 316° |
| 2026-04-23 18:02 | 48.99774 | 44.58317 | 38719 ft | 467 kts | 316° |
| 2026-04-23 18:02 | 49.04787 | 44.52007 | 38713 ft | 468 kts | 316° |
| 2026-04-23 18:03 | 49.09780 | 44.45712 | 38704 ft | 468 kts | 316° |
| 2026-04-23 18:03 | 49.14795 | 44.39373 | 38695 ft | 468 kts | 316° |
| 2026-04-23 18:04 | 49.19804 | 44.33022 | 38700 ft | 468 kts | 316° |
| 2026-04-23 18:04 | 49.24815 | 44.26651 | 38696 ft | 468 kts | 316° |
| 2026-04-23 18:05 | 49.29825 | 44.20263 | 38684 ft | 468 kts | 316° |
| 2026-04-23 18:05 | 49.34835 | 44.13858 | 38683 ft | 469 kts | 316° |
| 2026-04-23 18:06 | 49.39816 | 44.07472 | 38679 ft | 469 kts | 316° |
| 2026-04-23 18:06 | 49.44826 | 44.01032 | 38674 ft | 469 kts | 316° |
| 2026-04-23 18:07 | 49.49837 | 43.94574 | 38670 ft | 470 kts | 316° |
| 2026-04-23 18:07 | 49.54857 | 43.88096 | 38668 ft | 470 kts | 316° |
| 2026-04-23 18:08 | 49.59876 | 43.81623 | 38662 ft | 471 kts | 316° |
| 2026-04-23 18:08 | 49.64902 | 43.75125 | 38655 ft | 471 kts | 316° |
| 2026-04-23 18:09 | 49.69890 | 43.68655 | 38650 ft | 471 kts | 316° |
| 2026-04-23 18:09 | 49.74896 | 43.62141 | 38646 ft | 470 kts | 316° |
| 2026-04-23 18:10 | 49.79900 | 43.55611 | 38645 ft | 470 kts | 316° |
| 2026-04-23 18:10 | 49.84900 | 43.49068 | 38639 ft | 470 kts | 316° |
| 2026-04-23 18:11 | 49.89895 | 43.42514 | 38629 ft | 470 kts | 316° |
| 2026-04-23 18:11 | 49.94886 | 43.35946 | 38626 ft | 470 kts | 316° |
| 2026-04-23 18:12 | 49.99878 | 43.29359 | 38621 ft | 470 kts | 316° |
| 2026-04-23 18:12 | 50.04857 | 43.22770 | 38618 ft | 470 kts | 316° |
| 2026-04-23 18:13 | 50.09815 | 43.16188 | 38351 ft | 475 kts | 316° |
| 2026-04-23 18:13 | 50.12330 | 43.12843 | 38118 ft | 474 kts | 316° |
| 2026-04-23 18:13 | 50.14836 | 43.09507 | 37834 ft | 471 kts | 316° |
| 2026-04-23 18:13 | 50.17320 | 43.06196 | 37644 ft | 469 kts | 316° |
| 2026-04-23 18:14 | 50.19797 | 43.02888 | 37615 ft | 470 kts | 316° |
| 2026-04-23 18:14 | 50.24768 | 42.96233 | 37599 ft | 470 kts | 316° |
| 2026-04-23 18:15 | 50.29725 | 42.89579 | 37585 ft | 470 kts | 316° |
| 2026-04-23 18:15 | 50.34674 | 42.82917 | 37586 ft | 469 kts | 316° |
| 2026-04-23 18:16 | 50.39620 | 42.76239 | 37579 ft | 469 kts | 316° |
| 2026-04-23 18:16 | 50.44558 | 42.69553 | 37575 ft | 469 kts | 316° |
| 2026-04-23 18:17 | 50.51927 | 42.59541 | 37566 ft | 469 kts | 316° |
| 2026-04-23 18:17 | 50.57087 | 42.53216 | 37566 ft | 472 kts | 322° |
| 2026-04-23 18:18 | 50.62559 | 42.47461 | 37554 ft | 473 kts | 323° |
| 2026-04-23 18:18 | 50.68049 | 42.41732 | 37552 ft | 473 kts | 323° |
| 2026-04-23 18:19 | 50.73510 | 42.35922 | 37545 ft | 473 kts | 323° |
| 2026-04-23 18:19 | 50.78955 | 42.30055 | 37541 ft | 473 kts | 322° |
| 2026-04-23 18:20 | 50.84391 | 42.24168 | 37540 ft | 473 kts | 322° |
| 2026-04-23 18:20 | 50.89828 | 42.18267 | 37533 ft | 474 kts | 322° |
| 2026-04-23 18:21 | 50.95262 | 42.12355 | 37528 ft | 474 kts | 322° |
| 2026-04-23 18:21 | 51.00702 | 42.06421 | 37514 ft | 474 kts | 322° |
| 2026-04-23 18:22 | 51.06113 | 42.00501 | 37510 ft | 474 kts | 322° |
| 2026-04-23 18:22 | 51.11546 | 41.94540 | 37513 ft | 474 kts | 322° |
| 2026-04-23 18:23 | 51.19691 | 41.85570 | 37501 ft | 475 kts | 322° |
| 2026-04-23 18:24 | 51.27829 | 41.76569 | 37500 ft | 475 kts | 322° |
| 2026-04-23 18:25 | 51.35975 | 41.67518 | 37487 ft | 475 kts | 322° |
| 2026-04-23 18:25 | 51.41401 | 41.61468 | 37482 ft | 475 kts | 322° |
| 2026-04-23 18:26 | 51.46822 | 41.55404 | 37482 ft | 475 kts | 322° |
| 2026-04-23 18:26 | 51.52247 | 41.49319 | 37483 ft | 475 kts | 322° |
| 2026-04-23 18:27 | 51.57668 | 41.43219 | 37473 ft | 475 kts | 322° |
| 2026-04-23 18:27 | 51.63056 | 41.37139 | 37470 ft | 476 kts | 322° |
| 2026-04-23 18:28 | 51.68505 | 41.30974 | 37461 ft | 476 kts | 322° |
| 2026-04-23 18:28 | 51.73881 | 41.24876 | 37467 ft | 476 kts | 322° |
| 2026-04-23 18:29 | 51.79298 | 41.18714 | 37450 ft | 476 kts | 322° |
| 2026-04-23 18:29 | 51.84705 | 41.12544 | 37456 ft | 476 kts | 322° |
| 2026-04-23 18:30 | 51.90111 | 41.06354 | 37455 ft | 476 kts | 322° |
| 2026-04-23 18:30 | 51.95527 | 41.00136 | 37441 ft | 476 kts | 322° |
| 2026-04-23 18:31 | 52.00934 | 40.93910 | 37438 ft | 477 kts | 322° |
| 2026-04-23 18:31 | 52.06425 | 40.87852 | 37431 ft | 478 kts | 327° |
| 2026-04-23 18:32 | 52.12198 | 40.82572 | 37434 ft | 479 kts | 329° |
| 2026-04-23 18:32 | 52.18044 | 40.77349 | 37430 ft | 479 kts | 329° |
| 2026-04-23 18:33 | 52.23861 | 40.72015 | 37422 ft | 479 kts | 328° |
| 2026-04-23 18:33 | 52.29659 | 40.66634 | 37422 ft | 480 kts | 328° |
| 2026-04-23 18:34 | 52.35470 | 40.61232 | 37416 ft | 480 kts | 328° |
| 2026-04-23 18:34 | 52.41234 | 40.55858 | 37414 ft | 480 kts | 328° |
| 2026-04-23 18:35 | 52.47036 | 40.50429 | 37410 ft | 480 kts | 328° |
| 2026-04-23 18:35 | 52.52848 | 40.44984 | 37410 ft | 481 kts | 329° |
| 2026-04-23 18:36 | 52.58665 | 40.39556 | 37408 ft | 481 kts | 329° |
| 2026-04-23 18:36 | 52.64485 | 40.34110 | 37405 ft | 481 kts | 329° |
| 2026-04-23 18:37 | 52.70304 | 40.28641 | 37404 ft | 481 kts | 329° |
| 2026-04-23 18:37 | 52.76118 | 40.23158 | 37401 ft | 481 kts | 329° |
| 2026-04-23 18:38 | 52.81933 | 40.17660 | 37398 ft | 481 kts | 329° |
| 2026-04-23 18:38 | 52.87705 | 40.12187 | 37396 ft | 481 kts | 329° |
| 2026-04-23 18:39 | 52.93502 | 40.06674 | 37398 ft | 480 kts | 329° |
| 2026-04-23 18:39 | 52.99305 | 40.01136 | 37394 ft | 480 kts | 329° |
| 2026-04-23 18:40 | 53.05094 | 39.95595 | 37393 ft | 480 kts | 329° |
| 2026-04-23 18:40 | 53.10887 | 39.90033 | 37390 ft | 480 kts | 328° |
| 2026-04-23 18:41 | 53.16677 | 39.84455 | 37395 ft | 480 kts | 329° |
| 2026-04-23 18:41 | 53.22416 | 39.78909 | 37385 ft | 480 kts | 328° |
| 2026-04-23 18:42 | 53.28186 | 39.73316 | 37387 ft | 479 kts | 328° |
| 2026-04-23 18:42 | 53.33955 | 39.67705 | 37392 ft | 479 kts | 328° |
| 2026-04-23 18:43 | 53.39720 | 39.62082 | 37385 ft | 480 kts | 328° |
| 2026-04-23 18:43 | 53.45589 | 39.56718 | 37395 ft | 480 kts | 332° |
| 2026-04-23 18:44 | 53.51581 | 39.51744 | 37387 ft | 480 kts | 333° |
| 2026-04-23 18:44 | 53.57569 | 39.46757 | 37388 ft | 480 kts | 332° |
| 2026-04-23 18:45 | 53.63498 | 39.41729 | 37389 ft | 480 kts | 332° |
| 2026-04-23 18:45 | 53.69456 | 39.36635 | 37388 ft | 480 kts | 332° |
| 2026-04-23 18:46 | 53.75403 | 39.31537 | 37393 ft | 479 kts | 332° |
| 2026-04-23 18:46 | 53.81350 | 39.26419 | 37388 ft | 479 kts | 332° |
| 2026-04-23 18:47 | 53.86326 | 39.22124 | 37389 ft | 479 kts | 332° |
| 2026-04-23 18:47 | 53.92252 | 39.16993 | 37405 ft | 478 kts | 332° |
| 2026-04-23 18:48 | 53.98176 | 39.11847 | 37396 ft | 478 kts | 332° |
| 2026-04-23 18:48 | 54.04095 | 39.06689 | 37398 ft | 478 kts | 332° |
| 2026-04-23 18:49 | 54.09975 | 39.01548 | 37406 ft | 477 kts | 332° |
| 2026-04-23 18:49 | 54.15886 | 38.96363 | 37404 ft | 477 kts | 332° |
| 2026-04-23 18:50 | 54.20788 | 38.92053 | 37409 ft | 476 kts | 332° |
| 2026-04-23 18:50 | 54.27311 | 38.84993 | 37414 ft | 474 kts | 322° |
| 2026-04-23 18:51 | 54.32482 | 38.77989 | 37406 ft | 473 kts | 320° |
| 2026-04-23 18:51 | 54.37594 | 38.70872 | 37412 ft | 473 kts | 320° |
| 2026-04-23 18:52 | 54.42719 | 38.63798 | 37415 ft | 473 kts | 321° |
| 2026-04-23 18:52 | 54.47864 | 38.56744 | 37415 ft | 473 kts | 321° |
| 2026-04-23 18:53 | 54.53005 | 38.49695 | 37416 ft | 472 kts | 321° |
| 2026-04-23 18:53 | 54.58142 | 38.42628 | 37418 ft | 472 kts | 321° |
| 2026-04-23 18:54 | 54.63264 | 38.35554 | 37423 ft | 472 kts | 321° |
| 2026-04-23 18:54 | 54.68359 | 38.28493 | 37422 ft | 471 kts | 321° |
| 2026-04-23 18:55 | 54.73467 | 38.21391 | 37427 ft | 471 kts | 321° |
| 2026-04-23 18:55 | 54.78566 | 38.14277 | 37427 ft | 470 kts | 321° |
| 2026-04-23 18:56 | 54.82795 | 38.08359 | 37433 ft | 470 kts | 321° |
| 2026-04-23 18:56 | 54.88705 | 38.00061 | 37439 ft | 469 kts | 321° |
| 2026-04-23 18:57 | 54.93783 | 37.92905 | 37441 ft | 469 kts | 321° |
| 2026-04-23 18:57 | 54.98853 | 37.85737 | 37447 ft | 469 kts | 321° |
| 2026-04-23 18:58 | 55.03906 | 37.78569 | 37446 ft | 468 kts | 321° |
| 2026-04-23 18:58 | 55.08954 | 37.71383 | 37455 ft | 468 kts | 321° |
| 2026-04-23 18:59 | 55.13994 | 37.64186 | 37461 ft | 467 kts | 321° |
| 2026-04-23 18:59 | 55.19019 | 37.56983 | 37467 ft | 467 kts | 321° |
| 2026-04-23 19:00 | 55.24010 | 37.49808 | 37472 ft | 466 kts | 321° |
| 2026-04-23 19:00 | 55.29016 | 37.42585 | 37482 ft | 465 kts | 321° |
| 2026-04-23 19:01 | 55.33700 | 37.35806 | 37489 ft | 465 kts | 321° |
| 2026-04-23 19:01 | 55.38682 | 37.28571 | 37498 ft | 464 kts | 321° |
| 2026-04-23 19:02 | 55.42813 | 37.22555 | 37500 ft | 463 kts | 321° |
| 2026-04-23 19:02 | 55.48614 | 37.14076 | 37498 ft | 463 kts | 321° |
| 2026-04-23 19:03 | 55.53561 | 37.06819 | 37501 ft | 462 kts | 321° |
| 2026-04-23 19:03 | 55.58501 | 36.99548 | 37501 ft | 462 kts | 321° |
| 2026-04-23 19:04 | 55.63439 | 36.92255 | 37527 ft | 462 kts | 321° |
| 2026-04-23 19:04 | 55.68370 | 36.84948 | 37528 ft | 462 kts | 321° |
| 2026-04-23 19:05 | 55.73269 | 36.77663 | 37535 ft | 462 kts | 321° |
| 2026-04-23 19:05 | 55.78187 | 36.70326 | 37552 ft | 462 kts | 321° |
| 2026-04-23 19:06 | 55.83112 | 36.62953 | 37555 ft | 462 kts | 321° |
| 2026-04-23 19:06 | 55.88026 | 36.55571 | 37563 ft | 462 kts | 321° |
| 2026-04-23 19:07 | 55.92941 | 36.48161 | 37568 ft | 463 kts | 321° |
| 2026-04-23 19:07 | 55.97848 | 36.40738 | 37569 ft | 463 kts | 321° |
| 2026-04-23 19:08 | 56.02755 | 36.33290 | 37581 ft | 462 kts | 321° |
| 2026-04-23 19:08 | 56.07662 | 36.25816 | 37578 ft | 462 kts | 321° |
| 2026-04-23 19:09 | 56.12554 | 36.18339 | 37583 ft | 462 kts | 321° |
| 2026-04-23 19:09 | 56.17427 | 36.10865 | 37594 ft | 461 kts | 321° |
| 2026-04-23 19:10 | 56.22295 | 36.03373 | 37608 ft | 460 kts | 321° |
| 2026-04-23 19:10 | 56.27123 | 35.95917 | 37602 ft | 459 kts | 321° |
| 2026-04-23 19:11 | 56.31964 | 35.88415 | 37608 ft | 459 kts | 321° |
| 2026-04-23 19:11 | 56.36790 | 35.80909 | 37613 ft | 458 kts | 321° |
| 2026-04-23 19:12 | 56.40823 | 35.74617 | 37623 ft | 457 kts | 321° |
| 2026-04-23 19:12 | 56.46406 | 35.65876 | 37629 ft | 456 kts | 321° |
| 2026-04-23 19:13 | 56.51196 | 35.58350 | 37629 ft | 456 kts | 321° |
| 2026-04-23 19:13 | 56.55982 | 35.50802 | 37634 ft | 455 kts | 321° |
| 2026-04-23 19:14 | 56.60753 | 35.43253 | 37641 ft | 454 kts | 321° |
| 2026-04-23 19:14 | 56.65517 | 35.35688 | 37650 ft | 454 kts | 321° |
| 2026-04-23 19:15 | 56.70234 | 35.28172 | 37653 ft | 453 kts | 321° |
| 2026-04-23 19:15 | 56.74970 | 35.20598 | 37656 ft | 453 kts | 321° |